createdAt,value
2022-11-16T00:00:37.912Z,77.10
2022-11-16T00:03:22.776Z,75.63
2022-11-16T00:06:07.586Z,74.64
2022-11-16T00:08:52.469Z,74.07
2022-11-16T00:11:37.210Z,72.95
2022-11-16T00:14:22.121Z,73.21
2022-11-16T00:17:07.083Z,73.26
2022-11-16T00:19:51.851Z,71.81
2022-11-16T00:22:36.868Z,71.97
2022-11-16T00:25:22.449Z,72.08
2022-11-16T00:28:07.866Z,72.19
2022-11-16T00:30:52.883Z,71.32
2022-11-16T00:33:37.687Z,71.73
2022-11-16T00:36:22.601Z,72.36
2022-11-16T00:39:07.416Z,71.80
2022-11-16T00:41:52.229Z,72.32
2022-11-16T00:44:37.198Z,72.23
2022-11-16T00:47:22.087Z,71.73
2022-11-16T00:50:06.952Z,72.37
2022-11-16T00:52:51.914Z,71.01
2022-11-16T00:55:36.751Z,72.19
2022-11-16T00:58:21.526Z,70.95
2022-11-16T01:01:06.478Z,70.23
2022-11-16T01:03:51.749Z,71.52
2022-11-16T01:06:36.790Z,71.84
2022-11-16T01:09:21.538Z,70.30
2022-11-16T01:12:06.368Z,71.53
2022-11-16T01:14:51.300Z,71.31
2022-11-16T01:17:36.231Z,70.45
2022-11-16T01:20:21.078Z,69.86
2022-11-16T01:23:05.847Z,71.38
2022-11-16T01:25:50.828Z,70.93
2022-11-16T01:28:36.140Z,70.47
2022-11-16T01:31:21.532Z,70.49
2022-11-16T01:34:06.444Z,70.59
2022-11-16T01:36:51.380Z,71.35
2022-11-16T01:39:36.227Z,70.64
2022-11-16T01:42:21.040Z,71.12
2022-11-16T01:45:06.030Z,71.84
2022-11-16T01:47:51.028Z,70.50
2022-11-16T01:50:35.793Z,69.62
2022-11-16T01:53:20.550Z,71.76
2022-11-16T01:56:05.487Z,71.17
2022-11-16T01:58:50.288Z,71.76
2022-11-16T02:01:35.338Z,71.33
2022-11-16T02:04:20.209Z,72.59
2022-11-16T02:07:05.069Z,72.47
2022-11-16T02:09:50.505Z,72.85
2022-11-16T02:12:35.439Z,73.49
2022-11-16T02:15:20.313Z,73.10
2022-11-16T02:18:05.246Z,72.97
2022-11-16T02:20:50.124Z,73.20
2022-11-16T02:23:34.980Z,72.68
2022-11-16T02:26:19.890Z,72.35
2022-11-16T02:29:04.782Z,72.93
2022-11-16T02:31:49.774Z,73.22
2022-11-16T02:34:34.574Z,73.50
2022-11-16T02:37:19.305Z,72.20
2022-11-16T02:40:04.234Z,72.00
2022-11-16T02:42:49.154Z,71.93
2022-11-16T02:45:34.100Z,71.71
2022-11-16T02:48:18.964Z,70.92
2022-11-16T02:51:03.925Z,71.59
2022-11-16T02:53:48.696Z,71.06
2022-11-16T02:56:33.595Z,70.31
2022-11-16T02:59:18.312Z,70.84
2022-11-16T03:02:03.278Z,70.78
2022-11-16T03:04:48.237Z,70.32
2022-11-16T03:07:33.199Z,69.65
2022-11-16T03:10:18.140Z,71.61
2022-11-16T03:13:02.865Z,70.63
2022-11-16T03:15:47.693Z,70.50
2022-11-16T03:18:32.897Z,71.11
2022-11-16T03:21:17.947Z,70.09
2022-11-16T03:24:02.781Z,70.36
2022-11-16T03:26:47.598Z,69.67
2022-11-16T03:29:32.637Z,69.66
2022-11-16T03:32:17.360Z,70.62
2022-11-16T03:35:02.432Z,70.31
2022-11-16T03:37:47.233Z,70.63
2022-11-16T03:40:32.218Z,69.92
2022-11-16T03:43:16.995Z,69.91
2022-11-16T03:46:01.855Z,69.64
2022-11-16T03:48:46.705Z,70.39
2022-11-16T03:51:31.782Z,69.97
2022-11-16T03:54:16.783Z,69.99
2022-11-16T03:57:01.592Z,71.27
2022-11-16T03:59:46.366Z,69.70
2022-11-16T04:02:31.321Z,67.95
2022-11-16T04:05:16.191Z,69.80
2022-11-16T04:08:01.060Z,69.56
2022-11-16T04:10:46.109Z,68.67
2022-11-16T04:13:31.026Z,68.19
2022-11-16T04:16:15.926Z,68.65
2022-11-16T04:19:00.829Z,68.74
2022-11-16T04:21:45.662Z,68.63
2022-11-16T04:24:30.576Z,68.79
2022-11-16T04:27:15.535Z,69.69
2022-11-16T04:30:00.555Z,68.34
2022-11-16T04:32:45.366Z,68.29
2022-11-16T04:35:30.244Z,68.52
2022-11-16T04:38:15.266Z,68.38
2022-11-16T04:41:00.006Z,68.61
2022-11-16T04:43:44.968Z,68.56
2022-11-16T04:46:29.815Z,68.70
2022-11-16T04:49:14.599Z,68.67
2022-11-16T04:51:59.383Z,69.02
2022-11-16T04:54:44.364Z,70.19
2022-11-16T04:57:29.170Z,70.22
2022-11-16T05:00:14.121Z,71.08
2022-11-16T05:03:01.516Z,70.24
2022-11-16T05:05:46.794Z,69.89
2022-11-16T05:08:32.125Z,69.96
2022-11-16T05:11:17.289Z,69.98
2022-11-16T05:14:02.267Z,69.60
2022-11-16T05:16:47.057Z,71.58
2022-11-16T05:19:32.048Z,70.22
2022-11-16T05:22:17.003Z,70.01
2022-11-16T05:25:01.898Z,71.95
2022-11-16T05:27:46.792Z,72.37
2022-11-16T05:30:31.811Z,71.04
2022-11-16T05:33:16.686Z,70.01
2022-11-16T05:36:01.491Z,69.66
2022-11-16T05:38:46.368Z,69.62
2022-11-16T05:41:31.351Z,70.80
2022-11-16T05:44:16.587Z,69.90
2022-11-16T05:47:01.583Z,70.42
2022-11-16T05:49:46.402Z,71.11
2022-11-16T05:52:31.409Z,69.86
2022-11-16T05:55:16.339Z,69.10
2022-11-16T05:58:01.197Z,67.71
2022-11-16T06:00:45.941Z,68.29
2022-11-16T06:03:30.814Z,68.57
2022-11-16T06:06:15.581Z,69.08
2022-11-16T06:09:00.453Z,68.79
2022-11-16T06:11:45.309Z,70.36
2022-11-16T06:14:30.177Z,71.29
2022-11-16T06:17:15.104Z,69.96
2022-11-16T06:19:59.852Z,69.98
2022-11-16T06:22:44.845Z,70.43
2022-11-16T06:25:29.726Z,70.83
2022-11-16T06:28:14.724Z,69.90
2022-11-16T06:30:59.704Z,70.77
2022-11-16T06:33:44.462Z,70.04
2022-11-16T06:36:29.376Z,70.45
2022-11-16T06:39:14.345Z,72.88
2022-11-16T06:41:59.307Z,72.01
2022-11-16T06:44:44.075Z,71.06
2022-11-16T06:47:28.999Z,70.53
2022-11-16T06:50:13.969Z,69.51
2022-11-16T06:52:58.993Z,69.79
2022-11-16T06:55:43.736Z,70.17
2022-11-16T06:58:28.596Z,69.98
2022-11-16T07:01:13.507Z,69.62
2022-11-16T07:03:58.973Z,69.49
2022-11-16T07:06:43.809Z,68.22
2022-11-16T07:09:28.702Z,69.05
2022-11-16T07:12:13.653Z,68.47
2022-11-16T07:14:58.378Z,66.51
2022-11-16T07:17:43.446Z,68.55
2022-11-16T07:20:28.280Z,67.92
2022-11-16T07:23:14.290Z,68.44
2022-11-16T07:25:59.376Z,66.43
2022-11-16T07:28:48.241Z,64.86
2022-11-16T07:31:33.870Z,65.69
2022-11-16T07:34:18.941Z,63.66
2022-11-16T07:37:03.623Z,66.38
2022-11-16T07:39:48.481Z,66.39
2022-11-16T07:42:33.265Z,66.00
2022-11-16T07:45:18.271Z,67.11
2022-11-16T07:48:03.107Z,66.60
2022-11-16T07:50:47.898Z,67.60
2022-11-16T07:53:32.713Z,68.73
2022-11-16T07:56:17.712Z,68.91
2022-11-16T07:59:02.561Z,67.64
2022-11-16T08:01:47.525Z,67.56
2022-11-16T08:04:32.473Z,66.65
2022-11-16T08:07:17.309Z,66.56
2022-11-16T08:10:02.178Z,63.60
2022-11-16T08:12:47.042Z,63.87
2022-11-16T08:15:31.982Z,61.39
2022-11-16T08:18:16.741Z,63.36
2022-11-16T08:21:01.627Z,63.27
2022-11-16T08:23:46.534Z,60.54
2022-11-16T08:26:31.438Z,60.47
2022-11-16T08:29:16.361Z,63.39
2022-11-16T08:32:01.186Z,62.05
2022-11-16T08:34:46.194Z,62.88
2022-11-16T08:37:31.091Z,64.69
2022-11-16T08:40:16.007Z,64.17
2022-11-16T08:43:00.813Z,64.44
2022-11-16T08:45:45.788Z,65.76
2022-11-16T08:48:31.035Z,65.60
2022-11-16T08:51:18.239Z,65.98
2022-11-16T08:54:03.685Z,66.44
2022-11-16T08:56:48.594Z,66.13
2022-11-16T08:59:33.460Z,66.20
2022-11-16T09:02:18.399Z,63.79
2022-11-16T09:05:03.250Z,65.44
2022-11-16T09:07:48.141Z,63.44
2022-11-16T09:10:32.982Z,61.03
2022-11-16T09:13:17.870Z,61.90
2022-11-16T09:16:03.012Z,59.72
2022-11-16T09:18:48.299Z,62.84
2022-11-16T09:21:32.893Z,61.20
2022-11-16T09:24:17.866Z,60.93
2022-11-16T09:27:02.598Z,60.64
2022-11-16T09:29:47.388Z,57.74
2022-11-16T09:32:32.441Z,60.19
2022-11-16T09:35:17.181Z,58.63
2022-11-16T09:38:02.078Z,57.54
2022-11-16T09:40:46.854Z,56.83
2022-11-16T09:43:32.146Z,56.71
2022-11-16T09:46:17.042Z,55.07
2022-11-16T09:49:01.959Z,57.81
2022-11-16T09:51:46.762Z,57.82
2022-11-16T09:54:31.643Z,55.86
2022-11-16T09:57:16.690Z,56.95
2022-11-16T10:00:01.463Z,57.52
2022-11-16T10:02:46.445Z,55.50
2022-11-16T10:05:31.270Z,56.55
2022-11-16T10:08:16.235Z,54.12
2022-11-16T10:11:01.012Z,53.89
2022-11-16T10:13:45.945Z,54.00
2022-11-16T10:16:30.784Z,54.82
2022-11-16T10:19:15.620Z,55.20
2022-11-16T10:22:00.630Z,55.32
2022-11-16T10:24:45.507Z,51.08
2022-11-16T10:27:30.384Z,49.49
2022-11-16T10:30:15.224Z,50.23
2022-11-16T10:33:00.126Z,49.87
2022-11-16T10:35:44.973Z,51.29
2022-11-16T10:38:30.037Z,49.30
2022-11-16T10:41:15.003Z,50.41
2022-11-16T10:43:59.919Z,50.77
2022-11-16T10:46:45.059Z,53.95
2022-11-16T10:49:29.941Z,50.76
2022-11-16T10:52:14.807Z,53.53
2022-11-16T10:54:59.746Z,54.59
2022-11-16T10:57:44.610Z,54.39
2022-11-16T11:00:29.397Z,52.02
2022-11-16T11:03:14.329Z,52.83
2022-11-16T11:05:59.306Z,52.47
2022-11-16T11:08:44.247Z,52.23
2022-11-16T11:11:29.170Z,49.73
2022-11-16T11:14:13.996Z,49.97
2022-11-16T11:16:58.855Z,52.31
2022-11-16T11:19:43.764Z,51.94
2022-11-16T11:22:28.679Z,57.11
2022-11-16T11:25:13.620Z,54.88
2022-11-16T11:27:58.501Z,54.92
2022-11-16T11:30:43.302Z,55.29
2022-11-16T11:33:28.236Z,55.86
2022-11-16T11:36:13.143Z,56.71
2022-11-16T11:38:58.055Z,56.25
2022-11-16T11:41:42.952Z,55.07
2022-11-16T11:44:27.665Z,53.45
2022-11-16T11:47:55.596Z,54.67
2022-11-16T11:50:17.621Z,54.09
2022-11-16T11:53:02.527Z,55.10
2022-11-16T11:55:47.386Z,54.57
2022-11-16T11:58:32.091Z,53.76
2022-11-16T12:01:22.181Z,56.46
2022-11-16T12:04:10.107Z,54.54
2022-11-16T12:06:55.039Z,53.01
2022-11-16T12:09:39.944Z,53.00
2022-11-16T12:12:24.906Z,54.07
2022-11-16T12:15:09.779Z,50.96
2022-11-16T12:17:54.772Z,53.36
2022-11-16T12:20:39.496Z,49.41
2022-11-16T12:23:24.324Z,47.49
2022-11-16T12:26:09.145Z,49.07
2022-11-16T12:28:53.940Z,49.19
2022-11-16T12:31:38.943Z,47.12
2022-11-16T12:34:23.905Z,48.04
2022-11-16T12:37:08.813Z,48.51
2022-11-16T12:39:53.670Z,50.80
2022-11-16T12:42:38.701Z,48.30
2022-11-16T12:45:27.640Z,47.30
2022-11-16T12:48:15.859Z,47.99
2022-11-16T12:51:00.973Z,46.33
2022-11-16T12:53:45.790Z,47.67
2022-11-16T12:56:30.595Z,47.27
2022-11-16T12:59:15.308Z,45.74
2022-11-16T13:02:00.773Z,47.07
2022-11-16T13:04:46.187Z,46.96
2022-11-16T13:07:31.074Z,44.59
2022-11-16T13:10:16.016Z,45.55
2022-11-16T13:13:29.662Z,44.15
2022-11-16T13:16:05.865Z,48.03
2022-11-16T13:18:50.764Z,45.76
2022-11-16T13:21:35.573Z,46.30
2022-11-16T13:24:20.487Z,48.30
2022-11-16T13:27:05.301Z,47.12
2022-11-16T13:29:50.306Z,47.45
2022-11-16T13:32:35.085Z,45.71
2022-11-16T13:35:19.964Z,49.20
2022-11-16T13:38:04.914Z,47.26
2022-11-16T13:40:49.854Z,46.80
2022-11-16T13:43:34.818Z,45.00
2022-11-16T13:46:53.777Z,45.81
2022-11-16T13:49:24.687Z,46.00
2022-11-16T13:52:35.683Z,45.66
2022-11-16T13:55:14.886Z,45.77
2022-11-16T13:57:59.784Z,45.99
2022-11-16T14:00:44.877Z,46.82
2022-11-16T14:03:29.657Z,48.82
2022-11-16T14:06:14.645Z,49.37
2022-11-16T14:08:59.633Z,48.15
2022-11-16T14:11:44.539Z,46.96
2022-11-16T14:14:29.268Z,50.02
2022-11-16T14:17:14.148Z,47.04
2022-11-16T14:19:58.918Z,45.54
2022-11-16T14:22:43.871Z,42.46
2022-11-16T14:25:29.152Z,41.60
2022-11-16T14:28:13.867Z,41.85
2022-11-16T14:30:58.827Z,41.88
2022-11-16T14:33:43.606Z,43.94
2022-11-16T14:36:28.540Z,44.08
2022-11-16T14:39:13.395Z,47.62
2022-11-16T14:41:58.474Z,50.01
2022-11-16T14:44:43.385Z,50.11
2022-11-16T14:47:28.304Z,50.16
2022-11-16T14:50:13.328Z,49.20
2022-11-16T14:52:58.244Z,51.45
2022-11-16T14:55:43.245Z,51.67
2022-11-16T14:58:27.970Z,50.72
2022-11-16T15:01:12.836Z,50.84
2022-11-16T15:03:57.777Z,52.24
2022-11-16T15:06:43.176Z,51.81
2022-11-16T15:09:28.165Z,51.97
2022-11-16T15:12:13.077Z,53.67
2022-11-16T15:14:58.084Z,53.70
2022-11-16T15:17:43.009Z,55.50
2022-11-16T15:20:27.837Z,55.72
2022-11-16T15:23:12.659Z,56.11
2022-11-16T15:25:57.642Z,56.78
2022-11-16T15:28:47.161Z,56.14
2022-11-16T15:31:34.662Z,56.42
2022-11-16T15:34:19.720Z,56.87
2022-11-16T15:37:04.680Z,57.51
2022-11-16T15:39:49.640Z,58.81
2022-11-16T15:42:34.603Z,57.66
2022-11-16T15:45:19.469Z,56.40
2022-11-16T15:48:04.364Z,57.83
2022-11-16T15:50:49.209Z,57.78
2022-11-16T15:53:34.495Z,60.16
2022-11-16T15:56:19.518Z,61.05
2022-11-16T15:59:04.462Z,61.74
2022-11-16T16:01:49.470Z,61.28
2022-11-16T16:04:34.328Z,61.79
2022-11-16T16:07:19.434Z,61.86
2022-11-16T16:10:04.773Z,62.66
2022-11-16T16:12:50.432Z,62.79
2022-11-16T16:15:35.229Z,62.77
2022-11-16T16:18:20.111Z,61.90
2022-11-16T16:21:04.973Z,62.64
2022-11-16T16:23:50.089Z,63.01
2022-11-16T16:26:35.034Z,62.14
2022-11-16T16:29:20.022Z,64.38
2022-11-16T16:32:05.069Z,62.36
2022-11-16T16:34:50.006Z,63.10
2022-11-16T16:37:34.981Z,65.72
2022-11-16T16:40:19.731Z,64.12
2022-11-16T16:43:04.867Z,63.45
2022-11-16T16:45:49.633Z,64.07
2022-11-16T16:48:34.584Z,64.83
2022-11-16T16:51:19.619Z,65.30
2022-11-16T16:54:04.482Z,64.83
2022-11-16T16:56:49.428Z,65.09
2022-11-16T16:59:34.367Z,64.66
2022-11-16T17:02:19.696Z,63.67
2022-11-16T17:05:04.652Z,63.21
2022-11-16T17:07:49.629Z,65.09
2022-11-16T17:10:34.546Z,66.24
2022-11-16T17:13:19.963Z,63.47
2022-11-16T17:16:05.240Z,63.52
2022-11-16T17:18:50.061Z,63.57
2022-11-16T17:21:34.923Z,63.13
2022-11-16T17:24:19.771Z,64.66
2022-11-16T17:27:04.785Z,63.85
2022-11-16T17:29:49.971Z,63.98
2022-11-16T17:32:35.132Z,63.23
2022-11-16T17:35:20.142Z,63.54
2022-11-16T17:38:05.016Z,64.22
2022-11-16T17:40:49.984Z,63.22
2022-11-16T17:43:35.186Z,63.69
2022-11-16T17:46:20.257Z,62.09
2022-11-16T17:49:05.197Z,62.47
2022-11-16T17:51:50.042Z,62.46
2022-11-16T17:54:35.007Z,63.54
2022-11-16T17:57:19.825Z,64.03
2022-11-16T18:00:04.937Z,63.55
2022-11-16T18:02:49.923Z,63.54
2022-11-16T18:05:34.975Z,63.63
2022-11-16T18:08:19.825Z,64.33
2022-11-16T18:11:04.642Z,65.45
2022-11-16T18:13:49.584Z,64.35
2022-11-16T18:16:34.648Z,64.17
2022-11-16T18:19:19.550Z,65.26
2022-11-16T18:22:04.497Z,66.16
2022-11-16T18:24:49.542Z,65.00
2022-11-16T18:27:34.534Z,64.94
2022-11-16T18:30:19.501Z,65.86
2022-11-16T18:33:04.309Z,65.48
2022-11-16T18:35:49.329Z,64.90
2022-11-16T18:38:34.029Z,66.37
2022-11-16T18:41:18.909Z,65.90
2022-11-16T18:44:03.770Z,65.22
2022-11-16T18:46:48.654Z,66.04
2022-11-16T18:49:33.726Z,65.26
2022-11-16T18:52:18.562Z,64.76
2022-11-16T18:55:03.408Z,64.80
2022-11-16T18:57:48.346Z,65.12
2022-11-16T19:00:33.250Z,63.66
2022-11-16T19:03:18.081Z,64.57
2022-11-16T19:06:03.115Z,64.69
2022-11-16T19:08:55.026Z,64.62
2022-11-16T19:11:40.645Z,65.61
2022-11-16T19:14:25.407Z,64.43
2022-11-16T19:17:10.298Z,63.96
2022-11-16T19:19:55.200Z,63.48
2022-11-16T19:22:39.957Z,63.11
2022-11-16T19:25:24.808Z,62.59
2022-11-16T19:28:09.648Z,63.21
2022-11-16T19:30:54.426Z,62.45
2022-11-16T19:33:39.357Z,62.60
2022-11-16T19:36:24.316Z,61.71
2022-11-16T19:39:09.325Z,62.85
2022-11-16T19:41:54.249Z,62.55
2022-11-16T19:44:39.116Z,62.09
2022-11-16T19:47:24.137Z,61.70
2022-11-16T19:50:08.979Z,61.52
2022-11-16T19:52:53.850Z,62.06
2022-11-16T19:55:38.661Z,61.64
2022-11-16T19:58:23.692Z,61.90
2022-11-16T20:01:08.846Z,61.62
2022-11-16T20:03:54.182Z,60.61
2022-11-16T20:06:39.171Z,60.93
2022-11-16T20:09:24.025Z,61.07
2022-11-16T20:12:08.975Z,61.36
2022-11-16T20:14:53.737Z,61.49
2022-11-16T20:17:38.874Z,61.04
2022-11-16T20:20:23.871Z,60.90
2022-11-16T20:23:08.771Z,62.81
2022-11-16T20:25:53.701Z,62.08
2022-11-16T20:28:38.512Z,62.67
2022-11-16T20:31:23.423Z,64.21
2022-11-16T20:34:08.290Z,63.91
2022-11-16T20:36:53.273Z,64.65
2022-11-16T20:39:38.211Z,63.73
2022-11-16T20:42:23.467Z,63.28
2022-11-16T20:45:08.358Z,64.81
2022-11-16T20:47:53.198Z,64.55
2022-11-16T20:50:39.333Z,64.81
2022-11-16T20:53:24.520Z,63.75
2022-11-16T20:56:09.380Z,66.53
2022-11-16T20:58:54.318Z,65.85
2022-11-16T21:01:39.335Z,66.27
2022-11-16T21:04:24.179Z,63.64
2022-11-16T21:07:09.119Z,63.91
2022-11-16T21:09:53.991Z,61.67
2022-11-16T21:12:42.781Z,63.74
2022-11-16T21:15:27.975Z,64.00
2022-11-16T21:18:12.862Z,63.56
2022-11-16T21:20:57.772Z,62.13
2022-11-16T21:23:42.710Z,64.60
2022-11-16T21:26:27.439Z,63.43
2022-11-16T21:29:12.406Z,61.35
2022-11-16T21:31:57.310Z,62.19
2022-11-16T21:34:42.274Z,61.86
2022-11-16T21:37:27.252Z,62.23
2022-11-16T21:40:12.212Z,63.26
2022-11-16T21:42:57.250Z,61.89
2022-11-16T21:45:42.079Z,61.66
2022-11-16T21:48:28.275Z,62.17
2022-11-16T21:51:13.019Z,62.39
2022-11-16T21:53:57.986Z,62.92
2022-11-16T21:56:42.860Z,62.06
2022-11-16T21:59:27.925Z,62.37
2022-11-16T22:02:12.855Z,62.08
2022-11-16T22:04:57.703Z,61.08
2022-11-16T22:07:42.707Z,62.18
2022-11-16T22:10:27.552Z,62.01
2022-11-16T22:13:12.548Z,61.01
2022-11-16T22:15:57.324Z,61.14
2022-11-16T22:18:42.242Z,60.33
2022-11-16T22:21:27.181Z,59.59
2022-11-16T22:24:12.065Z,59.35
2022-11-16T22:26:57.579Z,60.27
2022-11-16T22:29:42.445Z,59.03
2022-11-16T22:32:27.343Z,60.37
2022-11-16T22:35:12.294Z,59.10
2022-11-16T22:37:57.178Z,59.99
2022-11-16T22:40:42.050Z,61.91
2022-11-16T22:43:26.920Z,58.38
2022-11-16T22:46:11.706Z,57.90
2022-11-16T22:48:56.610Z,59.36
2022-11-16T22:51:41.556Z,58.27
2022-11-16T22:54:28.735Z,58.33
2022-11-16T22:57:14.141Z,58.83
2022-11-16T23:00:01.964Z,61.52
2022-11-16T23:02:46.781Z,63.04
2022-11-16T23:05:31.760Z,64.58
2022-11-16T23:08:16.633Z,63.45
2022-11-16T23:11:01.521Z,62.69
2022-11-16T23:13:46.527Z,61.68
2022-11-16T23:16:31.387Z,61.50
2022-11-16T23:19:16.396Z,62.48
2022-11-16T23:22:01.255Z,64.03
2022-11-16T23:24:46.268Z,64.33
2022-11-16T23:27:31.088Z,63.31
2022-11-16T23:30:16.244Z,64.05
2022-11-16T23:33:01.032Z,63.64
2022-11-16T23:35:45.968Z,62.42
2022-11-16T23:38:30.911Z,62.80
2022-11-16T23:41:15.978Z,62.83
2022-11-16T23:44:00.836Z,62.01
2022-11-16T23:46:45.709Z,64.74
2022-11-16T23:49:30.763Z,63.84
2022-11-16T23:52:15.709Z,64.94
2022-11-16T23:55:00.718Z,64.87
2022-11-16T23:57:45.558Z,64.87
